Jarratt, VA (23867)

8:02 AM EDT on August 01, 2014 (GMT -0400)
purdy (KVAPURDY1) Elev 200 ft | 36.79 °N, 77.57 °W | Change Station

Current weather conditions updated 12 seconds ago

Scattered Clouds
Scattered Clouds
68.7 °F
Feels Like 68.7 °F
N
0.0
Wind Variable Wind from WSW
Gusts 0.0 mph

Today is forecast to be Much Cooler than yesterday. Thunderstorms.

Today
High -- | Low -- °F
--% Chance of Precip.
Yesterday
High -- | Low -- °F
Precip. -- in
6:15 AM 8:16 PM
Waxing Crescent, 26% visible
Pressure 30.17 in
Visibility 4.0 miles
Clouds Scattered Clouds 12000 ft
Dew Point 68 °F
Humidity 97%
Rainfall 0.04 in
Snow Depth Not available.
UV 1 out of 12
Pollen 4.90 out of 12
Air Quality Not available.
Flu Activity Not available.
METAR KEMV 011155Z AUTO 33005KT 4SM BR SCT120 20/20 A3017 RMK AO2

More Conditions Fewer Conditions

Pressure 30.17 in
Visibility 4.0 miles
Clouds Scattered Clouds 12000 ft
Dew Point 68 °F
Humidity 97%
Rainfall 0.04 in
Snow Depth Not available.
UV 1 out of 12
Pollen 4.90 out of 12
Air Quality Not available.
Flu Activity Not available.
METAR KEMV 011155Z AUTO 33005KT 4SM BR SCT120 20/20 A3017 RMK AO2

More Conditions Fewer Conditions

10-Day Weather Forecast

Almanac

Astronomy

Aug. 01, 2014 Rise Set
Actual Time 6:15 AM EDT 8:16 PM EDT
Civil Twilight 5:46 AM EDT 8:44 PM EDT
Nautical Twilight 5:11 AM EDT 9:19 PM EDT
Astronomical Twilight 4:34 AM EDT 9:57 PM EDT
Moon 11:28 AM EDT 11:09 PM EDT
Length of Visible Light 14h 58m
Length of Day
14h 00m
Tomorrow will be 1m 45s shorter.
Waxing Crescent, 26% of the Moon is Illuminated
Today
Waxing Crescent
Aug 3
First Quarter
Aug 10
Full
Aug 17
Last Quarter
Aug 25
New

Today's Extremes

State Highs State Lows

Community

WunderPhotos

Upload Photos

1,739,544 photos uploaded!

Nearby

Snow Depth

Station Depth Elevation
No new snow has been reported.

Earthquake Activity

City Distance Mag. Time & Date
No recent earthquake activity has been reported nearby.
Minimum magnitude displayed is 2.5.

Coastal Water Temperatures

Place Temperature
No Stations Reporting

Nearby Weather Stations

Station Location Temp. Dew Point Humidity Wind Precip. Elev Updated Type
purdy, Purdy, VA 68.7 °F 68 °F 97% WSW  at  0.0 mph 0.00 in / hr 200 ft 8:02 AM EDT Rapid Fire
Stony Creek, Stony Creek, VA 68.4 °F 67 °F 96% NNE  at  2.0 mph 0.00 in / hr 105 ft 7:51 AM EDT Normal
Brink, Emporia, VA 69.0 °F 68 °F 95% ESE  at  2.0 mph 0.01 in / hr 240 ft 7:59 AM EDT Normal
Dinwiddie, Dinwiddie, VA 68.7 °F 67 °F 95% NNE  at  0.0 mph - / hr 243 ft 7:50 AM EDT Normal

Show More Stations Show Fewer Stations